Roberts, Wisconsin
Current Conditions -  °F | °C
As of 9:35 AM on Thursday 30 Oct 2014 (Local Time) from KRNH Reporting Station
Overcast Overcast  
Wind Chill: 40°   Ceiling: 7500
Heat Index: 40°   Visibility: 10mi
Dew Point: 34°   Wind: 0mph
Humidity: 81%   Direction: NA
Pressure: 30.07"   Gusts: NA
Location:  44.98°N, 92.56°W
Report Text: KRNH 301435Z AUTO 00000KT 10SM BKN075 BKN090 OVC110 04/01 A3007 RMK AO2 T00430013
Loading
Personal Weather Stations






























Interactive Weather Map
Tropical Storm Tracking
New forecast layout! Learn more

10-Day Weather Forecast

Advertisements
Track Severe Weather on mobile